| time (UTC) | temp F | wind direction | speed MPH | gust MPH | rain 1hr in | rain 24hr in | rain mn in | humidity % | barometer mb |
| 20260507174538 | 65 | 0.0 | 0.0 | 0.00 | 0.00 | 0.00 | 25 | 1013.1 | |
| 20260507172533 | 65 | 0.0 | 0.0 | 0.00 | 0.00 | 0.00 | 24 | 1012.7 | |
| 20260507170528 | 65 | 0.0 | 0.0 | 0.00 | 0.00 | 0.00 | 24 | 1012.7 | |
| 20260507164522 | 66 | 0.0 | 0.0 | 0.00 | 0.00 | 0.00 | 23 | 1012.7 | |
| 20260507162517 | 66 | 0.0 | 0.0 | 0.00 | 0.00 | 0.00 | 24 | 1012.8 | |
| 20260507160512 | 67 | 0.0 | 0.0 | 0.00 | 0.00 | 0.00 | 24 | 1012.6 | |
| 20260507152502 | 67 | 0.0 | 0.0 | 0.00 | 0.00 | 0.00 | 23 | 1012.8 | |
| 20260507144451 | 67 | 0.0 | 0.0 | 0.00 | 0.00 | 0.00 | 24 | 1013.1 | |
| 20260507140441 | 66 | 0.0 | 0.0 | 0.00 | 0.00 | 0.00 | 24 | 1013.5 | |
| 20260507134436 | 67 | 0.0 | 0.0 | 0.00 | 0.00 | 0.00 | 23 | 1013.6 | |
| 20260507132431 | 67 | 0.0 | 0.0 | 0.00 | 0.00 | 0.00 | 23 | 1013.7 | |
| 20260507130426 | 66 | 0.0 | 0.0 | 0.00 | 0.00 | 0.00 | 23 | 1013.9 | |
| 20260507124420 | 67 | 0.0 | 0.0 | 0.00 | 0.00 | 0.00 | 22 | 1013.9 | |
| 20260507122415 | 67 | 0.0 | 0.0 | 0.00 | 0.00 | 0.00 | 23 | 1014.0 | |
| 20260507120410 | 66 | 0.0 | 0.0 | 0.00 | 0.00 | 0.00 | 24 | 1014.0 | |
| 20260507114405 | 67 | 0.0 | 0.0 | 0.00 | 0.00 | 0.00 | 25 | 1014.3 | |
| 20260507112400 | 67 | 0.0 | 0.0 | 0.00 | 0.00 | 0.00 | 25 | 1014.4 | |
| 20260507104349 | 67 | 0.0 | 0.0 | 0.00 | 0.00 | 0.00 | 26 | 1014.8 | |
| 20260507102344 | 66 | 0.0 | 0.0 | 0.00 | 0.00 | 0.00 | 28 | 1015.1 | |
| 20260507100339 | 66 | 0.0 | 0.0 | 0.00 | 0.00 | 0.00 | 28 | 1015.2 | |
| 20260507094334 | 67 | 0.0 | 0.0 | 0.00 | 0.00 | 0.00 | 28 | 1015.1 | |
| 20260507092329 | 65 | 0.0 | 0.0 | 0.00 | 0.00 | 0.00 | 29 | 1015.3 | |
| 20260507090324 | 64 | 0.0 | 0.0 | 0.00 | 0.00 | 0.00 | 30 | 1015.3 | |
| 20260507084318 | 61 | 0.0 | 0.0 | 0.00 | 0.00 | 0.00 | 34 | 1015.5 | |
| 20260507082313 | 60 | 0.0 | 0.0 | 0.00 | 0.00 | 0.00 | 36 | 1015.5 | |
| 20260507080308 | 58 | 0.0 | 0.0 | 0.00 | 0.00 | 0.00 | 37 | 1015.3 | |
| 20260507074303 | 57 | 0.0 | 0.0 | 0.00 | 0.00 | 0.00 | 37 | 1015.2 | |
| 20260507072258 | 56 | 0.0 | 0.0 | 0.00 | 0.00 | 0.00 | 40 | 1015.2 | |
| 20260507070252 | 55 | 0.0 | 0.0 | 0.00 | 0.00 | 0.00 | 41 | 1015.1 | |
| 20260507064248 | 53 | 0.0 | 0.0 | 0.00 | 0.00 | 0.00 | 43 | 1015.2 | |
| 20260507062242 | 53 | 0.0 | 0.0 | 0.00 | 0.00 | 0.00 | 43 | 1015.1 | |
| 20260507060237 | 53 | 0.0 | 0.0 | 0.00 | 0.00 | 0.00 | 43 | 1015.1 | |
| 20260507054232 | 53 | 0.0 | 0.0 | 0.00 | 0.00 | 0.00 | 43 | 1014.9 | |
| 20260507052227 | 53 | 0.0 | 0.0 | 0.00 | 0.00 | 0.00 | 43 | 1014.7 | |
| 20260507050222 | 51 | 0.0 | 0.0 | 0.00 | 0.00 | 0.00 | 45 | 1014.7 | |
| 20260507044217 | 51 | 0.0 | 0.0 | 0.00 | 0.00 | 0.00 | 46 | 1014.5 | |
| 20260507042211 | 52 | 0.0 | 0.0 | 0.00 | 0.00 | 0.00 | 45 | 1014.1 | |
| 20260507040206 | 51 | 0.0 | 0.0 | 0.00 | 0.00 | 0.00 | 46 | 1014.1 | |
| 20260507034201 | 52 | 0.0 | 0.0 | 0.00 | 0.00 | 0.00 | 46 | 1014.0 | |
| 20260507032156 | 52 | 0.0 | 0.0 | 0.00 | 0.00 | 0.00 | 45 | 1014.0 | |
| 20260507030144 | 53 | 0.0 | 0.0 | 0.00 | 0.00 | 0.00 | 45 | 1013.9 | |
| 20260507024136 | 52 | 0.0 | 0.0 | 0.00 | 0.00 | 0.00 | 48 | 1013.9 | |
| 20260507022130 | 53 | 0.0 | 0.0 | 0.00 | 0.00 | 0.00 | 46 | 1014.2 | |
| 20260507020125 | 53 | 0.0 | 0.0 | 0.00 | 0.00 | 0.00 | 45 | 1013.9 | |
| 20260507014119 | 53 | 0.0 | 0.0 | 0.00 | 0.00 | 0.00 | 46 | 1013.8 | |
| 20260507012114 | 53 | 0.0 | 0.0 | 0.00 | 0.00 | 0.00 | 44 | 1013.9 | |
| 20260507010108 | 53 | 0.0 | 0.0 | 0.00 | 0.00 | 0.00 | 46 | 1014.1 | |
| 20260507004102 | 53 | 0.0 | 0.0 | 0.00 | 0.00 | 0.00 | 46 | 1013.9 | |
| 20260507002057 | 54 | 0.0 | 0.0 | 0.00 | 0.00 | 0.00 | 45 | 1014.0 | |
| 20260507000052 | 54 | 0.0 | 0.0 | 0.00 | 0.00 | 0.00 | 46 | 1014.0 | |
| 20260506232038 | 54 | 0.0 | 0.0 | 0.00 | 0.00 | 0.00 | 45 | 1014.0 | |
| 20260506230033 | 53 | 0.0 | 0.0 | 0.00 | 0.00 | 0.00 | 46 | 1014.2 | |
| 20260506224028 | 54 | 0.0 | 0.0 | 0.00 | 0.00 | 0.00 | 44 | 1014.3 | |
| 20260506222022 | 54 | 0.0 | 0.0 | 0.00 | 0.00 | 0.00 | 44 | 1014.1 | |
| 20260506220017 | 55 | 0.0 | 0.0 | 0.00 | 0.00 | 0.00 | 45 | 1014.3 | |
| 20260506214012 | 54 | 0.0 | 0.0 | 0.00 | 0.00 | 0.00 | 45 | 1014.2 | |
| 20260506212007 | 56 | 0.0 | 0.0 | 0.00 | 0.00 | 0.00 | 43 | 1014.1 | |
| 20260506210001 | 55 | 0.0 | 0.0 | 0.00 | 0.00 | 0.00 | 45 | 1013.8 | |
| 20260506203956 | 56 | 0.0 | 0.0 | 0.00 | 0.00 | 0.00 | 45 | 1013.7 | |
| 20260506201951 | 56 | 0.0 | 0.0 | 0.00 | 0.00 | 0.00 | 44 | 1013.6 | |
| 20260506195945 | 54 | 0.0 | 0.0 | 0.00 | 0.00 | 0.00 | 46 | 1013.4 | |
| 20260506193940 | 56 | 0.0 | 0.0 | 0.00 | 0.00 | 0.00 | 46 | 1013.1 | |
| 20260506191934 | 57 | 0.0 | 0.0 | 0.00 | 0.00 | 0.00 | 47 | 1012.8 | |
| 20260506183924 | 58 | 0.0 | 0.0 | 0.00 | 0.00 | 0.00 | 47 | 1012.0 | |
| 20260506181919 | 60 | 0.0 | 0.0 | 0.00 | 0.00 | 0.00 | 45 | 1011.7 | |
| 20260506175914 | 60 | 0.0 | 0.0 | 0.00 | 0.00 | 0.00 | 45 | 1011.6 |